Possum Trot, Mississippi
Current Conditions -  °F | °C
As of 7:53 PM on Wednesday 17 Dec 2014 (Local Time) from KTUP Reporting Station
Clear Clear  
Wind Chill: 37°   Ceiling: Unl
Heat Index: 41°   Visibility: 10mi
Dew Point: 34°   Wind: 6mph
Humidity: 76%   Direction: 60°ENE
Pressure: 30.24"   Gusts: NA
Location:  34.1762°N, 88.9612°W
Report Text: KTUP 180153Z 06005KT 10SM CLR 05/01 A3024 RMK AO2 SLP242 T00500011
Loading
Personal Weather Stations






























Interactive Weather Map New forecast layout! Learn more

10-Day Weather Forecast

Advertisements
Track Severe Weather on mobile